sensor_id;sensor_type;location;lat;lon;timestamp;P1;durP1;ratioP1;P2;durP2;ratioP2
769;SDS011;368;48.698;9.116;2023-06-22T00:00:03;14.00;;;11.07;;
769;SDS011;368;48.698;9.116;2023-06-22T00:02:33;11.87;;;10.67;;
769;SDS011;368;48.698;9.116;2023-06-22T00:05:00;12.40;;;11.17;;
769;SDS011;368;48.698;9.116;2023-06-22T00:07:27;13.47;;;11.13;;
769;SDS011;368;48.698;9.116;2023-06-22T00:09:55;12.77;;;11.37;;
769;SDS011;368;48.698;9.116;2023-06-22T00:12:21;11.23;;;10.07;;
769;SDS011;368;48.698;9.116;2023-06-22T00:14:48;12.90;;;11.13;;
769;SDS011;368;48.698;9.116;2023-06-22T00:17:15;14.10;;;11.83;;
769;SDS011;368;48.698;9.116;2023-06-22T00:19:42;13.60;;;12.20;;
769;SDS011;368;48.698;9.116;2023-06-22T00:22:08;12.03;;;10.83;;
769;SDS011;368;48.698;9.116;2023-06-22T00:24:35;11.40;;;10.30;;
769;SDS011;368;48.698;9.116;2023-06-22T00:27:03;12.43;;;10.23;;
769;SDS011;368;48.698;9.116;2023-06-22T00:29:31;13.43;;;12.13;;
769;SDS011;368;48.698;9.116;2023-06-22T00:31:57;12.17;;;10.90;;
769;SDS011;368;48.698;9.116;2023-06-22T00:34:24;12.97;;;11.67;;
769;SDS011;368;48.698;9.116;2023-06-22T00:36:51;12.90;;;11.67;;
769;SDS011;368;48.698;9.116;2023-06-22T00:39:17;12.50;;;11.13;;
769;SDS011;368;48.698;9.116;2023-06-22T00:41:44;12.57;;;11.20;;
769;SDS011;368;48.698;9.116;2023-06-22T00:44:12;12.83;;;11.23;;
769;SDS011;368;48.698;9.116;2023-06-22T00:46:39;12.90;;;11.70;;
769;SDS011;368;48.698;9.116;2023-06-22T00:49:06;12.80;;;11.27;;
769;SDS011;368;48.698;9.116;2023-06-22T00:51:33;13.00;;;11.70;;
769;SDS011;368;48.698;9.116;2023-06-22T00:54:03;13.80;;;12.50;;
769;SDS011;368;48.698;9.116;2023-06-22T00:56:31;11.83;;;10.70;;
769;SDS011;368;48.698;9.116;2023-06-22T00:58:58;13.37;;;11.97;;
769;SDS011;368;48.698;9.116;2023-06-22T01:01:30;12.60;;;11.27;;
769;SDS011;368;48.698;9.116;2023-06-22T01:03:57;12.53;;;11.23;;
769;SDS011;368;48.698;9.116;2023-06-22T01:06:26;10.97;;;9.90;;
769;SDS011;368;48.698;9.116;2023-06-22T01:09:05;10.60;;;9.60;;
769;SDS011;368;48.698;9.116;2023-06-22T01:11:37;12.30;;;9.93;;
769;SDS011;368;48.698;9.116;2023-06-22T01:14:12;11.43;;;10.17;;
769;SDS011;368;48.698;9.116;2023-06-22T01:16:47;11.17;;;9.80;;
769;SDS011;368;48.698;9.116;2023-06-22T01:19:20;13.23;;;10.23;;
769;SDS011;368;48.698;9.116;2023-06-22T01:22:01;11.93;;;10.77;;
769;SDS011;368;48.698;9.116;2023-06-22T01:24:31;11.63;;;10.53;;
769;SDS011;368;48.698;9.116;2023-06-22T01:27:12;14.80;;;10.97;;
769;SDS011;368;48.698;9.116;2023-06-22T01:29:55;15.17;;;13.67;;
769;SDS011;368;48.698;9.116;2023-06-22T01:32:25;16.27;;;13.30;;
769;SDS011;368;48.698;9.116;2023-06-22T01:34:54;13.27;;;12.00;;
769;SDS011;368;48.698;9.116;2023-06-22T01:37:21;11.80;;;10.60;;
769;SDS011;368;48.698;9.116;2023-06-22T01:39:48;12.30;;;11.10;;
769;SDS011;368;48.698;9.116;2023-06-22T01:42:16;15.23;;;12.73;;
769;SDS011;368;48.698;9.116;2023-06-22T01:44:43;13.10;;;11.73;;
769;SDS011;368;48.698;9.116;2023-06-22T01:47:12;13.27;;;12.07;;
769;SDS011;368;48.698;9.116;2023-06-22T01:49:40;13.13;;;11.47;;
769;SDS011;368;48.698;9.116;2023-06-22T01:52:07;13.20;;;11.87;;
769;SDS011;368;48.698;9.116;2023-06-22T01:54:34;14.27;;;12.77;;
769;SDS011;368;48.698;9.116;2023-06-22T01:57:00;13.63;;;12.23;;
769;SDS011;368;48.698;9.116;2023-06-22T01:59:28;17.33;;;13.33;;
769;SDS011;368;48.698;9.116;2023-06-22T02:01:59;13.10;;;11.80;;
769;SDS011;368;48.698;9.116;2023-06-22T02:04:32;11.63;;;10.53;;
769;SDS011;368;48.698;9.116;2023-06-22T02:07:05;13.93;;;10.90;;
769;SDS011;368;48.698;9.116;2023-06-22T02:09:38;12.50;;;11.07;;
769;SDS011;368;48.698;9.116;2023-06-22T02:12:08;14.27;;;11.40;;
769;SDS011;368;48.698;9.116;2023-06-22T02:14:37;12.57;;;11.30;;
769;SDS011;368;48.698;9.116;2023-06-22T02:17:04;10.20;;;9.10;;
769;SDS011;368;48.698;9.116;2023-06-22T02:19:35;11.73;;;10.60;;
769;SDS011;368;48.698;9.116;2023-06-22T02:22:02;13.50;;;12.10;;
769;SDS011;368;48.698;9.116;2023-06-22T02:24:29;13.97;;;11.23;;
769;SDS011;368;48.698;9.116;2023-06-22T02:26:58;10.40;;;9.30;;
769;SDS011;368;48.698;9.116;2023-06-22T02:29:25;11.60;;;10.43;;
769;SDS011;368;48.698;9.116;2023-06-22T02:31:52;12.30;;;9.73;;
769;SDS011;368;48.698;9.116;2023-06-22T02:34:20;12.03;;;10.93;;
769;SDS011;368;48.698;9.116;2023-06-22T02:36:48;12.20;;;10.90;;
769;SDS011;368;48.698;9.116;2023-06-22T02:39:17;10.53;;;9.43;;
769;SDS011;368;48.698;9.116;2023-06-22T02:41:45;10.50;;;9.40;;
769;SDS011;368;48.698;9.116;2023-06-22T02:44:12;14.40;;;11.37;;
769;SDS011;368;48.698;9.116;2023-06-22T02:46:39;12.30;;;11.10;;
769;SDS011;368;48.698;9.116;2023-06-22T02:49:05;13.77;;;11.13;;
769;SDS011;368;48.698;9.116;2023-06-22T02:51:32;12.80;;;11.50;;
769;SDS011;368;48.698;9.116;2023-06-22T02:54:02;12.80;;;11.50;;
769;SDS011;368;48.698;9.116;2023-06-22T02:56:29;13.60;;;11.33;;
769;SDS011;368;48.698;9.116;2023-06-22T02:58:55;13.10;;;11.60;;
769;SDS011;368;48.698;9.116;2023-06-22T03:01:26;14.00;;;11.80;;
769;SDS011;368;48.698;9.116;2023-06-22T03:03:55;14.23;;;11.77;;
769;SDS011;368;48.698;9.116;2023-06-22T03:06:22;14.93;;;12.50;;
769;SDS011;368;48.698;9.116;2023-06-22T03:08:53;14.93;;;12.50;;
769;SDS011;368;48.698;9.116;2023-06-22T03:11:25;14.73;;;11.47;;
769;SDS011;368;48.698;9.116;2023-06-22T03:13:52;12.67;;;11.43;;
769;SDS011;368;48.698;9.116;2023-06-22T03:16:19;13.60;;;11.57;;
769;SDS011;368;48.698;9.116;2023-06-22T03:18:46;12.47;;;11.27;;
769;SDS011;368;48.698;9.116;2023-06-22T03:21:13;12.90;;;11.50;;
769;SDS011;368;48.698;9.116;2023-06-22T03:23:40;14.40;;;12.07;;
769;SDS011;368;48.698;9.116;2023-06-22T03:26:08;12.73;;;11.20;;
769;SDS011;368;48.698;9.116;2023-06-22T03:28:36;10.97;;;9.87;;
769;SDS011;368;48.698;9.116;2023-06-22T03:31:03;12.47;;;10.10;;
769;SDS011;368;48.698;9.116;2023-06-22T03:33:31;13.30;;;12.00;;
769;SDS011;368;48.698;9.116;2023-06-22T03:35:58;15.60;;;14.10;;
769;SDS011;368;48.698;9.116;2023-06-22T03:38:25;15.13;;;13.50;;
769;SDS011;368;48.698;9.116;2023-06-22T03:40:51;14.60;;;13.07;;
769;SDS011;368;48.698;9.116;2023-06-22T03:43:18;13.23;;;12.00;;
769;SDS011;368;48.698;9.116;2023-06-22T03:45:46;13.70;;;12.13;;
769;SDS011;368;48.698;9.116;2023-06-22T03:48:13;14.17;;;12.67;;
769;SDS011;368;48.698;9.116;2023-06-22T03:50:40;14.03;;;12.27;;
769;SDS011;368;48.698;9.116;2023-06-22T03:53:06;14.17;;;12.70;;
769;SDS011;368;48.698;9.116;2023-06-22T03:55:33;13.13;;;11.83;;
769;SDS011;368;48.698;9.116;2023-06-22T03:58:01;12.30;;;11.10;;
769;SDS011;368;48.698;9.116;2023-06-22T04:00:30;14.13;;;12.63;;
769;SDS011;368;48.698;9.116;2023-06-22T04:02:58;12.70;;;11.43;;
769;SDS011;368;48.698;9.116;2023-06-22T04:05:25;13.97;;;12.37;;
769;SDS011;368;48.698;9.116;2023-06-22T04:07:52;14.50;;;12.87;;
769;SDS011;368;48.698;9.116;2023-06-22T04:10:19;13.63;;;12.30;;
769;SDS011;368;48.698;9.116;2023-06-22T04:12:46;13.37;;;11.10;;
769;SDS011;368;48.698;9.116;2023-06-22T04:15:13;12.47;;;11.17;;
769;SDS011;368;48.698;9.116;2023-06-22T04:17:40;13.10;;;11.67;;
769;SDS011;368;48.698;9.116;2023-06-22T04:20:09;11.83;;;10.50;;
769;SDS011;368;48.698;9.116;2023-06-22T04:22:36;10.67;;;9.67;;
769;SDS011;368;48.698;9.116;2023-06-22T04:25:03;11.90;;;10.70;;
769;SDS011;368;48.698;9.116;2023-06-22T04:27:30;13.47;;;12.07;;
769;SDS011;368;48.698;9.116;2023-06-22T04:29:57;12.47;;;11.20;;
769;SDS011;368;48.698;9.116;2023-06-22T04:32:25;14.37;;;11.67;;
769;SDS011;368;48.698;9.116;2023-06-22T04:34:52;12.70;;;11.50;;
769;SDS011;368;48.698;9.116;2023-06-22T04:37:20;12.77;;;11.50;;
769;SDS011;368;48.698;9.116;2023-06-22T04:39:48;14.73;;;9.97;;
769;SDS011;368;48.698;9.116;2023-06-22T04:42:15;11.87;;;10.67;;
769;SDS011;368;48.698;9.116;2023-06-22T04:44:42;13.30;;;11.20;;
769;SDS011;368;48.698;9.116;2023-06-22T04:47:08;13.50;;;11.13;;
769;SDS011;368;48.698;9.116;2023-06-22T04:49:35;12.10;;;10.80;;
769;SDS011;368;48.698;9.116;2023-06-22T04:52:04;11.20;;;10.07;;
769;SDS011;368;48.698;9.116;2023-06-22T04:54:33;10.20;;;8.80;;
769;SDS011;368;48.698;9.116;2023-06-22T04:57:00;11.77;;;10.47;;
769;SDS011;368;48.698;9.116;2023-06-22T04:59:28;11.70;;;9.70;;
769;SDS011;368;48.698;9.116;2023-06-22T05:01:56;11.57;;;10.00;;
769;SDS011;368;48.698;9.116;2023-06-22T05:04:24;10.93;;;9.53;;
769;SDS011;368;48.698;9.116;2023-06-22T05:06:52;12.20;;;9.40;;
769;SDS011;368;48.698;9.116;2023-06-22T05:09:19;11.43;;;9.53;;
769;SDS011;368;48.698;9.116;2023-06-22T05:11:48;11.07;;;9.87;;
769;SDS011;368;48.698;9.116;2023-06-22T05:14:15;12.73;;;9.17;;
769;SDS011;368;48.698;9.116;2023-06-22T05:16:42;9.20;;;8.20;;
769;SDS011;368;48.698;9.116;2023-06-22T05:19:10;10.50;;;9.40;;
769;SDS011;368;48.698;9.116;2023-06-22T05:21:37;8.90;;;8.10;;
769;SDS011;368;48.698;9.116;2023-06-22T05:24:05;10.20;;;8.03;;
769;SDS011;368;48.698;9.116;2023-06-22T05:26:32;9.70;;;8.70;;
769;SDS011;368;48.698;9.116;2023-06-22T05:29:02;11.13;;;8.27;;
769;SDS011;368;48.698;9.116;2023-06-22T05:31:29;8.87;;;7.97;;
769;SDS011;368;48.698;9.116;2023-06-22T05:33:56;10.50;;;9.40;;
769;SDS011;368;48.698;9.116;2023-06-22T05:36:23;10.10;;;8.23;;
769;SDS011;368;48.698;9.116;2023-06-22T05:38:50;8.43;;;7.40;;
769;SDS011;368;48.698;9.116;2023-06-22T05:41:18;8.13;;;7.33;;
769;SDS011;368;48.698;9.116;2023-06-22T05:43:44;10.43;;;8.47;;
769;SDS011;368;48.698;9.116;2023-06-22T05:46:13;8.53;;;7.63;;
769;SDS011;368;48.698;9.116;2023-06-22T05:48:40;9.50;;;8.00;;
769;SDS011;368;48.698;9.116;2023-06-22T05:51:07;8.17;;;7.33;;
769;SDS011;368;48.698;9.116;2023-06-22T05:53:33;8.23;;;7.40;;
769;SDS011;368;48.698;9.116;2023-06-22T05:56:00;8.50;;;7.37;;
769;SDS011;368;48.698;9.116;2023-06-22T05:58:27;8.57;;;7.20;;
769;SDS011;368;48.698;9.116;2023-06-22T06:00:54;8.03;;;7.13;;
769;SDS011;368;48.698;9.116;2023-06-22T06:03:22;8.90;;;7.27;;
769;SDS011;368;48.698;9.116;2023-06-22T06:05:49;7.73;;;7.00;;
769;SDS011;368;48.698;9.116;2023-06-22T06:08:15;8.20;;;7.13;;
769;SDS011;368;48.698;9.116;2023-06-22T06:10:42;8.83;;;7.27;;
769;SDS011;368;48.698;9.116;2023-06-22T06:13:09;8.03;;;6.83;;
769;SDS011;368;48.698;9.116;2023-06-22T06:15:36;7.30;;;6.50;;
769;SDS011;368;48.698;9.116;2023-06-22T06:18:03;7.60;;;6.23;;
769;SDS011;368;48.698;9.116;2023-06-22T06:20:32;8.17;;;7.37;;
769;SDS011;368;48.698;9.116;2023-06-22T06:22:59;7.17;;;6.33;;
769;SDS011;368;48.698;9.116;2023-06-22T06:25:26;7.57;;;6.23;;
769;SDS011;368;48.698;9.116;2023-06-22T06:27:53;8.53;;;7.30;;
769;SDS011;368;48.698;9.116;2023-06-22T06:30:20;10.93;;;7.03;;
769;SDS011;368;48.698;9.116;2023-06-22T06:32:49;7.93;;;6.60;;
769;SDS011;368;48.698;9.116;2023-06-22T06:35:16;8.60;;;6.60;;
769;SDS011;368;48.698;9.116;2023-06-22T06:37:45;6.63;;;5.87;;
769;SDS011;368;48.698;9.116;2023-06-22T06:40:15;8.40;;;6.03;;
769;SDS011;368;48.698;9.116;2023-06-22T06:42:43;7.13;;;5.77;;
769;SDS011;368;48.698;9.116;2023-06-22T06:45:11;6.70;;;6.00;;
769;SDS011;368;48.698;9.116;2023-06-22T06:47:39;7.53;;;6.27;;
769;SDS011;368;48.698;9.116;2023-06-22T06:50:06;7.20;;;5.97;;
769;SDS011;368;48.698;9.116;2023-06-22T06:52:34;6.03;;;5.47;;
769;SDS011;368;48.698;9.116;2023-06-22T06:55:02;6.90;;;5.90;;
769;SDS011;368;48.698;9.116;2023-06-22T06:57:33;7.30;;;5.63;;
769;SDS011;368;48.698;9.116;2023-06-22T07:00:00;6.47;;;5.20;;
769;SDS011;368;48.698;9.116;2023-06-22T07:02:27;8.40;;;6.17;;
769;SDS011;368;48.698;9.116;2023-06-22T07:04:54;7.63;;;6.00;;
769;SDS011;368;48.698;9.116;2023-06-22T07:07:21;8.43;;;5.33;;
769;SDS011;368;48.698;9.116;2023-06-22T07:09:48;8.20;;;6.30;;
769;SDS011;368;48.698;9.116;2023-06-22T07:12:16;7.43;;;5.33;;
769;SDS011;368;48.698;9.116;2023-06-22T07:14:43;6.13;;;5.40;;
769;SDS011;368;48.698;9.116;2023-06-22T07:17:10;5.73;;;5.10;;
769;SDS011;368;48.698;9.116;2023-06-22T07:19:36;5.60;;;5.20;;
769;SDS011;368;48.698;9.116;2023-06-22T07:22:04;5.77;;;5.13;;
769;SDS011;368;48.698;9.116;2023-06-22T07:24:31;5.60;;;4.80;;
769;SDS011;368;48.698;9.116;2023-06-22T07:26:58;12.00;;;5.70;;
769;SDS011;368;48.698;9.116;2023-06-22T07:29:26;7.83;;;5.60;;
769;SDS011;368;48.698;9.116;2023-06-22T07:31:53;8.17;;;5.70;;
769;SDS011;368;48.698;9.116;2023-06-22T07:34:21;6.60;;;5.30;;
769;SDS011;368;48.698;9.116;2023-06-22T07:36:48;6.63;;;5.80;;
769;SDS011;368;48.698;9.116;2023-06-22T07:39:15;6.23;;;5.33;;
769;SDS011;368;48.698;9.116;2023-06-22T07:41:42;4.90;;;4.40;;
769;SDS011;368;48.698;9.116;2023-06-22T07:44:09;7.47;;;6.00;;
769;SDS011;368;48.698;9.116;2023-06-22T07:46:37;5.20;;;4.40;;
769;SDS011;368;48.698;9.116;2023-06-22T07:49:04;8.03;;;5.30;;
769;SDS011;368;48.698;9.116;2023-06-22T07:51:30;6.80;;;5.10;;
769;SDS011;368;48.698;9.116;2023-06-22T07:53:57;5.20;;;4.60;;
769;SDS011;368;48.698;9.116;2023-06-22T07:56:24;8.03;;;5.07;;
769;SDS011;368;48.698;9.116;2023-06-22T07:58:51;8.33;;;5.10;;
769;SDS011;368;48.698;9.116;2023-06-22T08:01:18;7.80;;;5.17;;
769;SDS011;368;48.698;9.116;2023-06-22T08:03:47;7.10;;;5.10;;
769;SDS011;368;48.698;9.116;2023-06-22T08:06:14;6.57;;;5.30;;
769;SDS011;368;48.698;9.116;2023-06-22T08:08:41;5.90;;;5.00;;
769;SDS011;368;48.698;9.116;2023-06-22T08:11:08;5.00;;;4.50;;
769;SDS011;368;48.698;9.116;2023-06-22T08:13:35;6.57;;;5.50;;
769;SDS011;368;48.698;9.116;2023-06-22T08:16:02;9.50;;;5.80;;
769;SDS011;368;48.698;9.116;2023-06-22T08:18:29;8.70;;;5.47;;
769;SDS011;368;48.698;9.116;2023-06-22T08:20:57;6.53;;;5.90;;
769;SDS011;368;48.698;9.116;2023-06-22T08:23:24;7.03;;;5.27;;
769;SDS011;368;48.698;9.116;2023-06-22T08:25:51;5.57;;;4.87;;
769;SDS011;368;48.698;9.116;2023-06-22T08:28:17;8.50;;;5.50;;
769;SDS011;368;48.698;9.116;2023-06-22T08:30:44;6.80;;;5.47;;
769;SDS011;368;48.698;9.116;2023-06-22T08:33:11;5.93;;;5.33;;
769;SDS011;368;48.698;9.116;2023-06-22T08:35:38;6.60;;;5.40;;
769;SDS011;368;48.698;9.116;2023-06-22T08:38:06;9.80;;;5.27;;
769;SDS011;368;48.698;9.116;2023-06-22T08:40:34;6.73;;;6.03;;
769;SDS011;368;48.698;9.116;2023-06-22T08:43:00;6.50;;;5.57;;
769;SDS011;368;48.698;9.116;2023-06-22T08:45:27;7.10;;;4.77;;
769;SDS011;368;48.698;9.116;2023-06-22T08:47:54;7.40;;;5.60;;
769;SDS011;368;48.698;9.116;2023-06-22T08:50:21;7.57;;;5.87;;
769;SDS011;368;48.698;9.116;2023-06-22T08:52:48;8.50;;;5.50;;
769;SDS011;368;48.698;9.116;2023-06-22T08:55:16;7.70;;;6.10;;
769;SDS011;368;48.698;9.116;2023-06-22T08:57:43;7.80;;;5.30;;
769;SDS011;368;48.698;9.116;2023-06-22T09:00:10;6.20;;;5.27;;
769;SDS011;368;48.698;9.116;2023-06-22T09:02:42;6.87;;;5.57;;
769;SDS011;368;48.698;9.116;2023-06-22T09:05:09;6.77;;;5.33;;
769;SDS011;368;48.698;9.116;2023-06-22T09:07:36;11.63;;;5.87;;
769;SDS011;368;48.698;9.116;2023-06-22T09:10:03;7.33;;;6.57;;
769;SDS011;368;48.698;9.116;2023-06-22T09:12:32;8.33;;;6.53;;
769;SDS011;368;48.698;9.116;2023-06-22T09:14:59;9.20;;;5.80;;
769;SDS011;368;48.698;9.116;2023-06-22T09:17:27;6.57;;;5.87;;
769;SDS011;368;48.698;9.116;2023-06-22T09:19:54;9.23;;;6.57;;
769;SDS011;368;48.698;9.116;2023-06-22T09:22:21;10.17;;;6.13;;
769;SDS011;368;48.698;9.116;2023-06-22T09:24:53;7.07;;;5.53;;
769;SDS011;368;48.698;9.116;2023-06-22T09:27:20;8.87;;;5.73;;
769;SDS011;368;48.698;9.116;2023-06-22T09:29:49;6.30;;;5.70;;
769;SDS011;368;48.698;9.116;2023-06-22T09:32:15;7.23;;;5.83;;
769;SDS011;368;48.698;9.116;2023-06-22T09:34:42;8.23;;;6.57;;
769;SDS011;368;48.698;9.116;2023-06-22T09:37:09;7.23;;;5.40;;
769;SDS011;368;48.698;9.116;2023-06-22T09:39:36;7.90;;;5.83;;
769;SDS011;368;48.698;9.116;2023-06-22T09:42:03;8.20;;;5.33;;
769;SDS011;368;48.698;9.116;2023-06-22T09:44:31;6.73;;;6.07;;
769;SDS011;368;48.698;9.116;2023-06-22T09:46:59;7.20;;;5.30;;
769;SDS011;368;48.698;9.116;2023-06-22T09:49:26;6.20;;;5.60;;
769;SDS011;368;48.698;9.116;2023-06-22T09:51:53;8.57;;;6.10;;
769;SDS011;368;48.698;9.116;2023-06-22T09:54:20;6.23;;;4.83;;
769;SDS011;368;48.698;9.116;2023-06-22T09:56:46;5.67;;;5.03;;
769;SDS011;368;48.698;9.116;2023-06-22T09:59:13;7.10;;;5.50;;
769;SDS011;368;48.698;9.116;2023-06-22T10:01:40;9.30;;;5.87;;
769;SDS011;368;48.698;9.116;2023-06-22T10:04:08;7.43;;;6.17;;
769;SDS011;368;48.698;9.116;2023-06-22T10:06:35;7.47;;;5.73;;
769;SDS011;368;48.698;9.116;2023-06-22T10:09:05;8.97;;;5.60;;
769;SDS011;368;48.698;9.116;2023-06-22T10:11:32;8.67;;;5.93;;
769;SDS011;368;48.698;9.116;2023-06-22T10:14:00;8.07;;;5.57;;
769;SDS011;368;48.698;9.116;2023-06-22T10:16:30;5.90;;;5.30;;
769;SDS011;368;48.698;9.116;2023-06-22T10:18:57;9.80;;;5.63;;
769;SDS011;368;48.698;9.116;2023-06-22T10:21:25;6.50;;;5.80;;
769;SDS011;368;48.698;9.116;2023-06-22T10:23:53;9.90;;;6.07;;
769;SDS011;368;48.698;9.116;2023-06-22T10:26:20;8.40;;;6.00;;
769;SDS011;368;48.698;9.116;2023-06-22T10:28:47;7.57;;;6.10;;
769;SDS011;368;48.698;9.116;2023-06-22T10:31:14;6.47;;;5.30;;
769;SDS011;368;48.698;9.116;2023-06-22T10:33:41;8.93;;;5.57;;
769;SDS011;368;48.698;9.116;2023-06-22T10:36:09;7.20;;;5.37;;
769;SDS011;368;48.698;9.116;2023-06-22T10:38:37;6.90;;;5.57;;
769;SDS011;368;48.698;9.116;2023-06-22T10:41:04;6.33;;;5.30;;
769;SDS011;368;48.698;9.116;2023-06-22T10:43:31;7.63;;;5.67;;
769;SDS011;368;48.698;9.116;2023-06-22T10:45:58;5.97;;;5.13;;
769;SDS011;368;48.698;9.116;2023-06-22T10:48:24;8.20;;;5.20;;
769;SDS011;368;48.698;9.116;2023-06-22T10:50:51;6.27;;;5.33;;
769;SDS011;368;48.698;9.116;2023-06-22T10:53:19;10.03;;;6.03;;
769;SDS011;368;48.698;9.116;2023-06-22T10:55:47;7.90;;;6.23;;
769;SDS011;368;48.698;9.116;2023-06-22T10:58:14;10.60;;;6.33;;
769;SDS011;368;48.698;9.116;2023-06-22T11:00:41;6.53;;;5.40;;
769;SDS011;368;48.698;9.116;2023-06-22T11:03:08;8.43;;;5.70;;
769;SDS011;368;48.698;9.116;2023-06-22T11:05:35;7.10;;;6.07;;
769;SDS011;368;48.698;9.116;2023-06-22T11:08:01;10.07;;;5.87;;
769;SDS011;368;48.698;9.116;2023-06-22T11:10:28;9.93;;;6.80;;
769;SDS011;368;48.698;9.116;2023-06-22T11:12:56;7.90;;;6.47;;
769;SDS011;368;48.698;9.116;2023-06-22T11:15:23;6.73;;;5.77;;
769;SDS011;368;48.698;9.116;2023-06-22T11:17:50;8.73;;;6.60;;
769;SDS011;368;48.698;9.116;2023-06-22T11:20:17;7.63;;;5.57;;
769;SDS011;368;48.698;9.116;2023-06-22T11:22:44;7.97;;;5.63;;
769;SDS011;368;48.698;9.116;2023-06-22T11:25:10;8.23;;;6.10;;
769;SDS011;368;48.698;9.116;2023-06-22T11:27:37;10.80;;;6.70;;
769;SDS011;368;48.698;9.116;2023-06-22T11:30:06;8.20;;;6.40;;
769;SDS011;368;48.698;9.116;2023-06-22T11:32:34;7.63;;;6.00;;
769;SDS011;368;48.698;9.116;2023-06-22T11:35:01;7.00;;;6.30;;
769;SDS011;368;48.698;9.116;2023-06-22T11:37:28;7.70;;;5.40;;
769;SDS011;368;48.698;9.116;2023-06-22T11:39:54;9.53;;;6.87;;
769;SDS011;368;48.698;9.116;2023-06-22T11:42:21;12.17;;;6.63;;
769;SDS011;368;48.698;9.116;2023-06-22T11:44:50;6.13;;;5.40;;
769;SDS011;368;48.698;9.116;2023-06-22T11:47:18;8.83;;;5.73;;
769;SDS011;368;48.698;9.116;2023-06-22T11:49:45;8.33;;;5.70;;
769;SDS011;368;48.698;9.116;2023-06-22T11:52:12;7.23;;;5.47;;
769;SDS011;368;48.698;9.116;2023-06-22T11:54:38;10.50;;;6.93;;
769;SDS011;368;48.698;9.116;2023-06-22T11:57:05;9.47;;;6.10;;
769;SDS011;368;48.698;9.116;2023-06-22T11:59:35;8.13;;;6.20;;
769;SDS011;368;48.698;9.116;2023-06-22T12:02:02;11.37;;;6.90;;
769;SDS011;368;48.698;9.116;2023-06-22T12:04:32;9.30;;;5.83;;
769;SDS011;368;48.698;9.116;2023-06-22T12:06:58;8.57;;;6.53;;
769;SDS011;368;48.698;9.116;2023-06-22T12:09:25;12.63;;;6.50;;
769;SDS011;368;48.698;9.116;2023-06-22T12:11:53;7.07;;;5.97;;
769;SDS011;368;48.698;9.116;2023-06-22T12:14:19;7.00;;;6.10;;
769;SDS011;368;48.698;9.116;2023-06-22T12:16:46;10.10;;;6.97;;
769;SDS011;368;48.698;9.116;2023-06-22T12:19:13;8.10;;;6.47;;
769;SDS011;368;48.698;9.116;2023-06-22T12:21:41;9.10;;;6.40;;
769;SDS011;368;48.698;9.116;2023-06-22T12:24:10;8.10;;;6.73;;
769;SDS011;368;48.698;9.116;2023-06-22T12:26:37;8.80;;;6.60;;
769;SDS011;368;48.698;9.116;2023-06-22T12:29:04;6.50;;;5.90;;
769;SDS011;368;48.698;9.116;2023-06-22T12:31:30;7.90;;;7.00;;
769;SDS011;368;48.698;9.116;2023-06-22T12:33:57;7.43;;;6.60;;
769;SDS011;368;48.698;9.116;2023-06-22T12:36:24;8.57;;;6.10;;
769;SDS011;368;48.698;9.116;2023-06-22T12:38:52;9.10;;;6.80;;
769;SDS011;368;48.698;9.116;2023-06-22T12:41:19;10.17;;;6.60;;
769;SDS011;368;48.698;9.116;2023-06-22T12:43:46;7.37;;;6.17;;
769;SDS011;368;48.698;9.116;2023-06-22T12:46:13;9.80;;;7.20;;
769;SDS011;368;48.698;9.116;2023-06-22T12:48:40;9.60;;;6.87;;
769;SDS011;368;48.698;9.116;2023-06-22T12:51:07;11.63;;;6.90;;
769;SDS011;368;48.698;9.116;2023-06-22T12:53:34;9.60;;;7.40;;
769;SDS011;368;48.698;9.116;2023-06-22T12:56:02;10.73;;;6.73;;
769;SDS011;368;48.698;9.116;2023-06-22T12:58:29;9.57;;;7.60;;
769;SDS011;368;48.698;9.116;2023-06-22T13:00:56;10.50;;;7.67;;
769;SDS011;368;48.698;9.116;2023-06-22T13:03:23;7.67;;;6.83;;
769;SDS011;368;48.698;9.116;2023-06-22T13:05:52;8.30;;;5.90;;
769;SDS011;368;48.698;9.116;2023-06-22T13:08:19;9.93;;;7.63;;
769;SDS011;368;48.698;9.116;2023-06-22T13:10:46;9.03;;;6.93;;
769;SDS011;368;48.698;9.116;2023-06-22T13:13:14;10.03;;;6.90;;
769;SDS011;368;48.698;9.116;2023-06-22T13:15:41;7.10;;;6.33;;
769;SDS011;368;48.698;9.116;2023-06-22T13:18:08;9.57;;;6.47;;
769;SDS011;368;48.698;9.116;2023-06-22T13:20:35;8.70;;;6.43;;
769;SDS011;368;48.698;9.116;2023-06-22T13:23:02;8.13;;;6.83;;
769;SDS011;368;48.698;9.116;2023-06-22T13:25:29;7.40;;;6.30;;
769;SDS011;368;48.698;9.116;2023-06-22T13:27:55;13.23;;;7.70;;
769;SDS011;368;48.698;9.116;2023-06-22T13:30:24;8.27;;;6.20;;
769;SDS011;368;48.698;9.116;2023-06-22T13:32:50;7.90;;;6.73;;
769;SDS011;368;48.698;9.116;2023-06-22T13:35:17;8.23;;;6.30;;
769;SDS011;368;48.698;9.116;2023-06-22T13:37:44;8.10;;;6.80;;
769;SDS011;368;48.698;9.116;2023-06-22T13:40:11;7.10;;;5.97;;
769;SDS011;368;48.698;9.116;2023-06-22T13:42:38;9.30;;;6.47;;
769;SDS011;368;48.698;9.116;2023-06-22T13:45:05;8.67;;;6.80;;
769;SDS011;368;48.698;9.116;2023-06-22T13:47:34;10.57;;;6.40;;
769;SDS011;368;48.698;9.116;2023-06-22T13:50:01;8.83;;;6.43;;
769;SDS011;368;48.698;9.116;2023-06-22T13:52:28;9.93;;;7.40;;
769;SDS011;368;48.698;9.116;2023-06-22T13:54:55;7.63;;;6.10;;
769;SDS011;368;48.698;9.116;2023-06-22T13:57:22;7.47;;;6.03;;
769;SDS011;368;48.698;9.116;2023-06-22T13:59:49;8.80;;;6.23;;
769;SDS011;368;48.698;9.116;2023-06-22T14:02:15;8.77;;;6.40;;
769;SDS011;368;48.698;9.116;2023-06-22T14:04:44;11.27;;;6.50;;
769;SDS011;368;48.698;9.116;2023-06-22T14:07:10;9.90;;;6.27;;
769;SDS011;368;48.698;9.116;2023-06-22T14:09:37;11.30;;;6.20;;
769;SDS011;368;48.698;9.116;2023-06-22T14:12:04;10.80;;;7.17;;
769;SDS011;368;48.698;9.116;2023-06-22T14:14:31;9.87;;;6.67;;
769;SDS011;368;48.698;9.116;2023-06-22T14:16:58;8.57;;;6.23;;
769;SDS011;368;48.698;9.116;2023-06-22T14:19:25;10.93;;;6.50;;
769;SDS011;368;48.698;9.116;2023-06-22T14:21:53;8.20;;;6.00;;
769;SDS011;368;48.698;9.116;2023-06-22T14:24:21;7.87;;;6.23;;
769;SDS011;368;48.698;9.116;2023-06-22T14:26:48;10.13;;;5.83;;
769;SDS011;368;48.698;9.116;2023-06-22T14:29:15;8.57;;;5.40;;
769;SDS011;368;48.698;9.116;2023-06-22T14:31:44;9.60;;;4.60;;
769;SDS011;368;48.698;9.116;2023-06-22T14:34:11;7.00;;;4.67;;
769;SDS011;368;48.698;9.116;2023-06-22T14:36:38;8.93;;;5.40;;
769;SDS011;368;48.698;9.116;2023-06-22T14:39:06;6.93;;;4.60;;
769;SDS011;368;48.698;9.116;2023-06-22T14:41:33;6.87;;;4.10;;
769;SDS011;368;48.698;9.116;2023-06-22T14:43:59;7.50;;;3.60;;
769;SDS011;368;48.698;9.116;2023-06-22T14:46:26;11.60;;;4.60;;
769;SDS011;368;48.698;9.116;2023-06-22T14:48:53;5.50;;;3.20;;
769;SDS011;368;48.698;9.116;2023-06-22T14:51:20;6.80;;;3.90;;
769;SDS011;368;48.698;9.116;2023-06-22T14:53:47;6.90;;;3.50;;
769;SDS011;368;48.698;9.116;2023-06-22T14:56:15;10.07;;;3.63;;
769;SDS011;368;48.698;9.116;2023-06-22T14:58:42;4.90;;;2.90;;
769;SDS011;368;48.698;9.116;2023-06-22T15:01:10;8.20;;;3.63;;
769;SDS011;368;48.698;9.116;2023-06-22T15:03:38;7.17;;;4.30;;
769;SDS011;368;48.698;9.116;2023-06-22T15:06:04;7.00;;;4.10;;
769;SDS011;368;48.698;9.116;2023-06-22T15:08:32;6.83;;;3.93;;
769;SDS011;368;48.698;9.116;2023-06-22T15:10:59;10.67;;;4.50;;
769;SDS011;368;48.698;9.116;2023-06-22T15:13:29;8.57;;;4.13;;
769;SDS011;368;48.698;9.116;2023-06-22T15:15:58;9.10;;;4.17;;
769;SDS011;368;48.698;9.116;2023-06-22T15:18:25;7.80;;;4.23;;
769;SDS011;368;48.698;9.116;2023-06-22T15:20:52;8.80;;;4.00;;
769;SDS011;368;48.698;9.116;2023-06-22T15:23:19;7.30;;;3.60;;
769;SDS011;368;48.698;9.116;2023-06-22T15:25:46;7.73;;;3.67;;
769;SDS011;368;48.698;9.116;2023-06-22T15:28:13;10.83;;;3.83;;
769;SDS011;368;48.698;9.116;2023-06-22T15:30:42;9.00;;;4.33;;
769;SDS011;368;48.698;9.116;2023-06-22T15:33:08;7.60;;;3.63;;
769;SDS011;368;48.698;9.116;2023-06-22T15:35:35;6.00;;;3.20;;